createdAt,value
2018-03-08T00:00:17.168Z,4.61
2018-03-08T00:01:16.208Z,4.67
2018-03-08T00:02:16.479Z,4.67
2018-03-08T00:03:16.748Z,4.73
2018-03-08T00:04:17.023Z,4.80
2018-03-08T00:05:16.298Z,4.73
2018-03-08T00:06:16.569Z,4.73
2018-03-08T00:07:16.845Z,4.86
2018-03-08T00:08:17.113Z,4.86
2018-03-08T00:09:16.387Z,4.73
2018-03-08T00:10:16.669Z,4.80
2018-03-08T00:11:16.711Z,4.86
2018-03-08T00:12:16.984Z,4.86
2018-03-08T00:13:16.291Z,4.86
2018-03-08T00:14:16.587Z,4.80
2018-03-08T00:15:16.861Z,4.86
2018-03-08T00:16:17.137Z,4.86
2018-03-08T00:17:16.412Z,4.86
2018-03-08T00:18:16.682Z,4.92
2018-03-08T00:19:16.957Z,4.86
2018-03-08T00:20:16.225Z,4.86
2018-03-08T00:21:16.271Z,4.92
2018-03-08T00:22:16.543Z,4.86
2018-03-08T00:23:16.818Z,4.92
2018-03-08T00:24:17.150Z,4.92
2018-03-08T00:25:16.410Z,4.92
2018-03-08T00:26:16.687Z,4.98
2018-03-08T00:27:16.944Z,4.98
2018-03-08T00:28:16.234Z,4.98
2018-03-08T00:29:16.513Z,4.98
2018-03-08T00:30:16.794Z,4.98
2018-03-08T00:31:16.852Z,4.98
2018-03-08T00:32:17.136Z,4.98
2018-03-08T00:33:16.399Z,4.98
2018-03-08T00:34:16.669Z,5.05
2018-03-08T00:35:16.942Z,4.98
2018-03-08T00:36:16.211Z,5.05
2018-03-08T00:37:16.486Z,4.98
2018-03-08T00:38:16.760Z,5.05
2018-03-08T00:39:17.018Z,4.98
2018-03-08T00:40:16.283Z,4.98
2018-03-08T00:41:16.342Z,4.98
2018-03-08T00:42:16.619Z,4.98
2018-03-08T00:43:16.894Z,4.92
2018-03-08T00:44:17.171Z,4.98
2018-03-08T00:45:16.446Z,5.05
2018-03-08T00:46:16.710Z,4.98
2018-03-08T00:47:17.099Z,4.98
2018-03-08T00:48:16.370Z,4.98
2018-03-08T00:49:16.634Z,4.98
2018-03-08T00:50:16.910Z,4.98
2018-03-08T00:51:16.930Z,4.98
2018-03-08T00:52:17.195Z,4.92
2018-03-08T00:53:16.460Z,4.86
2018-03-08T00:54:16.731Z,4.80
2018-03-08T00:55:17.002Z,4.80
2018-03-08T00:56:16.283Z,4.80
2018-03-08T00:57:16.562Z,4.80
2018-03-08T00:58:16.834Z,4.80
2018-03-08T00:59:17.340Z,4.80
2018-03-08T01:00:16.621Z,4.80
2018-03-08T01:01:17.128Z,4.86
2018-03-08T01:02:16.397Z,4.86
2018-03-08T01:03:16.663Z,4.80
2018-03-08T01:04:16.926Z,4.86
2018-03-08T01:05:17.190Z,4.86
2018-03-08T01:06:16.460Z,4.80
2018-03-08T01:07:16.746Z,4.86
2018-03-08T01:08:17.010Z,4.80
2018-03-08T01:09:16.284Z,4.86
2018-03-08T01:10:16.566Z,4.92
2018-03-08T01:11:16.637Z,4.86
2018-03-08T01:12:16.977Z,4.86
2018-03-08T01:13:16.251Z,4.92
2018-03-08T01:14:16.515Z,4.92
2018-03-08T01:15:16.790Z,4.92
2018-03-08T01:16:17.068Z,4.86
2018-03-08T01:17:16.344Z,4.98
2018-03-08T01:18:16.610Z,4.98
2018-03-08T01:19:16.882Z,4.92
2018-03-08T01:20:17.176Z,4.92
2018-03-08T01:21:17.199Z,4.92
2018-03-08T01:22:16.467Z,4.92
2018-03-08T01:23:16.728Z,4.86
2018-03-08T01:24:17.005Z,4.86
2018-03-08T01:25:16.269Z,4.86
2018-03-08T01:26:16.581Z,4.80
2018-03-08T01:27:16.840Z,4.80
2018-03-08T01:28:17.102Z,4.80
2018-03-08T01:29:16.368Z,4.80
2018-03-08T01:30:16.657Z,4.73
2018-03-08T01:31:16.699Z,4.73
2018-03-08T01:32:16.972Z,4.73
2018-03-08T01:33:16.237Z,4.73
2018-03-08T01:34:16.501Z,4.67
2018-03-08T01:35:16.775Z,4.67
2018-03-08T01:36:17.041Z,4.67
2018-03-08T01:37:16.311Z,4.73
2018-03-08T01:38:16.576Z,4.73
2018-03-08T01:39:16.842Z,4.73
2018-03-08T01:40:17.451Z,4.73
2018-03-08T01:41:17.147Z,4.61
2018-03-08T01:42:16.414Z,4.61
2018-03-08T01:43:16.687Z,4.61
2018-03-08T01:44:16.963Z,4.61
2018-03-08T01:45:16.239Z,4.61
2018-03-08T01:46:16.504Z,4.61
2018-03-08T01:47:16.768Z,4.61
2018-03-08T01:48:17.041Z,4.55
2018-03-08T01:49:16.318Z,4.55
2018-03-08T01:50:16.589Z,4.48
2018-03-08T01:51:16.633Z,4.48
2018-03-08T01:52:16.912Z,4.55
2018-03-08T01:53:17.183Z,4.55
2018-03-08T01:54:16.454Z,4.55
2018-03-08T01:55:16.723Z,4.55
2018-03-08T01:56:16.981Z,4.55
2018-03-08T01:57:16.260Z,4.55
2018-03-08T01:58:16.531Z,4.48
2018-03-08T01:59:16.801Z,4.55
2018-03-08T02:00:17.484Z,4.55
2018-03-08T02:01:17.125Z,4.55
2018-03-08T02:02:16.399Z,4.55
2018-03-08T02:03:16.664Z,4.55
2018-03-08T02:04:16.943Z,4.55
2018-03-08T02:05:16.207Z,4.61
2018-03-08T02:06:16.478Z,4.61
2018-03-08T02:07:16.746Z,4.61
2018-03-08T02:08:17.017Z,4.61
2018-03-08T02:09:16.287Z,4.61
2018-03-08T02:10:16.569Z,4.67
2018-03-08T02:11:16.633Z,4.67
2018-03-08T02:12:16.895Z,4.67
2018-03-08T02:13:17.171Z,4.67
2018-03-08T02:14:16.447Z,4.61
2018-03-08T02:15:16.725Z,4.67
2018-03-08T02:16:16.992Z,4.67
2018-03-08T02:17:16.260Z,4.67
2018-03-08T02:18:16.532Z,4.61
2018-03-08T02:19:16.802Z,4.61
2018-03-08T02:20:17.075Z,4.61
2018-03-08T02:21:17.118Z,4.67
2018-03-08T02:22:16.393Z,4.61
2018-03-08T02:23:16.662Z,4.61
2018-03-08T02:24:16.929Z,4.67
2018-03-08T02:25:16.208Z,4.67
2018-03-08T02:26:16.486Z,4.61
2018-03-08T02:27:16.774Z,4.55
2018-03-08T02:28:17.042Z,4.48
2018-03-08T02:29:16.316Z,4.48
2018-03-08T02:30:16.593Z,4.48
2018-03-08T02:31:16.644Z,4.48
2018-03-08T02:32:16.917Z,4.42
2018-03-08T02:33:17.184Z,4.42
2018-03-08T02:34:16.454Z,4.42
2018-03-08T02:35:16.728Z,4.48
2018-03-08T02:36:17.003Z,4.48
2018-03-08T02:37:16.276Z,4.48
2018-03-08T02:38:16.548Z,4.48
2018-03-08T02:39:16.849Z,4.42
2018-03-08T02:40:17.462Z,4.42
2018-03-08T02:41:17.186Z,4.42
2018-03-08T02:42:16.456Z,4.48
2018-03-08T02:43:16.730Z,4.48
2018-03-08T02:44:17.005Z,4.48
2018-03-08T02:45:16.278Z,4.42
2018-03-08T02:46:16.562Z,4.36
2018-03-08T02:47:16.829Z,4.36
2018-03-08T02:48:17.108Z,4.36
2018-03-08T02:49:16.400Z,4.30
2018-03-08T02:50:16.678Z,4.23
2018-03-08T02:51:16.727Z,4.23
2018-03-08T02:52:17.004Z,4.23
2018-03-08T02:53:16.277Z,4.17
2018-03-08T02:54:16.560Z,4.17
2018-03-08T02:55:16.828Z,4.05
2018-03-08T02:56:16.282Z,3.98
2018-03-08T02:57:16.562Z,3.92
2018-03-08T02:58:16.831Z,3.92
2018-03-08T02:59:17.102Z,3.86
2018-03-08T03:00:16.390Z,3.92
2018-03-08T03:01:16.439Z,3.92
2018-03-08T03:02:16.716Z,3.86
2018-03-08T03:03:17.006Z,3.86
2018-03-08T03:04:16.284Z,3.86
2018-03-08T03:05:16.555Z,3.73
2018-03-08T03:06:16.825Z,3.80
2018-03-08T03:07:17.095Z,3.86
2018-03-08T03:08:16.361Z,3.73
2018-03-08T03:09:16.640Z,3.67
2018-03-08T03:10:16.912Z,3.67
2018-03-08T03:11:17.268Z,3.55
2018-03-08T03:12:16.537Z,3.61
2018-03-08T03:13:16.819Z,3.61
2018-03-08T03:14:17.090Z,3.61
2018-03-08T03:15:16.370Z,3.61
2018-03-08T03:16:16.639Z,3.61
2018-03-08T03:17:16.921Z,3.61
2018-03-08T03:18:17.190Z,3.73
2018-03-08T03:19:16.461Z,3.67
2018-03-08T03:20:16.741Z,3.73
2018-03-08T03:21:16.774Z,3.67
2018-03-08T03:22:17.047Z,3.67
2018-03-08T03:23:16.323Z,3.67
2018-03-08T03:24:16.591Z,3.61
2018-03-08T03:25:16.869Z,3.61
2018-03-08T03:26:17.141Z,3.55
2018-03-08T03:27:16.423Z,3.61
2018-03-08T03:28:16.700Z,3.55
2018-03-08T03:29:16.978Z,3.55
2018-03-08T03:30:16.270Z,3.48
2018-03-08T03:31:16.296Z,3.48
2018-03-08T03:32:16.571Z,3.48
2018-03-08T03:33:16.844Z,3.55
2018-03-08T03:34:17.111Z,3.55
2018-03-08T03:35:16.383Z,3.42
2018-03-08T03:36:16.651Z,3.30
2018-03-08T03:37:16.923Z,3.36
2018-03-08T03:38:17.194Z,3.30
2018-03-08T03:39:16.462Z,3.42
2018-03-08T03:40:16.737Z,3.48
2018-03-08T03:41:16.783Z,3.61
2018-03-08T03:42:17.063Z,3.61
2018-03-08T03:43:16.341Z,3.61
2018-03-08T03:44:16.607Z,3.67
2018-03-08T03:45:16.876Z,3.67
2018-03-08T03:46:17.428Z,3.67
2018-03-08T03:47:16.704Z,3.61
2018-03-08T03:48:16.977Z,3.67
2018-03-08T03:49:16.253Z,3.67
2018-03-08T03:50:16.529Z,3.73
2018-03-08T03:51:16.576Z,3.73
2018-03-08T03:52:16.845Z,3.67
2018-03-08T03:53:17.113Z,3.61
2018-03-08T03:54:16.583Z,3.61
2018-03-08T03:55:16.850Z,3.61
2018-03-08T03:56:17.137Z,3.73
2018-03-08T03:57:16.405Z,3.80
2018-03-08T03:58:16.675Z,3.80
2018-03-08T03:59:16.941Z,3.73
2018-03-08T04:00:16.220Z,3.79
2018-03-08T04:01:16.246Z,3.80
2018-03-08T04:02:16.521Z,3.80
2018-03-08T04:03:16.840Z,3.83
2018-03-08T04:04:17.110Z,3.83
2018-03-08T04:05:16.374Z,3.80
2018-03-08T04:06:16.643Z,3.80
2018-03-08T04:07:16.906Z,3.80
2018-03-08T04:08:17.179Z,3.80
2018-03-08T04:09:16.451Z,3.80
2018-03-08T04:10:16.721Z,3.73
2018-03-08T04:11:16.783Z,3.67
2018-03-08T04:12:17.056Z,3.67
2018-03-08T04:13:16.319Z,3.67
2018-03-08T04:14:16.589Z,3.61
2018-03-08T04:15:16.862Z,3.67
2018-03-08T04:16:17.434Z,3.67
2018-03-08T04:17:16.712Z,3.61
2018-03-08T04:18:16.988Z,3.61
2018-03-08T04:19:16.255Z,3.61
2018-03-08T04:20:16.531Z,3.61
2018-03-08T04:21:16.573Z,3.48
2018-03-08T04:22:16.841Z,3.42
2018-03-08T04:23:17.117Z,3.36
2018-03-08T04:24:16.387Z,3.23
2018-03-08T04:25:16.658Z,3.11
2018-03-08T04:26:16.935Z,2.98
2018-03-08T04:27:17.208Z,2.86
2018-03-08T04:28:16.480Z,2.86
2018-03-08T04:29:16.749Z,2.73
2018-03-08T04:30:17.030Z,2.67
2018-03-08T04:31:17.338Z,2.67
2018-03-08T04:32:16.620Z,2.80
2018-03-08T04:33:16.909Z,2.80
2018-03-08T04:34:17.178Z,2.73
2018-03-08T04:35:16.446Z,2.67
2018-03-08T04:36:16.719Z,2.48
2018-03-08T04:37:16.988Z,2.42
2018-03-08T04:38:16.259Z,2.42
2018-03-08T04:39:16.530Z,2.36
2018-03-08T04:40:16.806Z,2.42
2018-03-08T04:41:16.853Z,2.55
2018-03-08T04:42:17.119Z,2.48
2018-03-08T04:43:16.391Z,2.48
2018-03-08T04:44:16.659Z,2.42
2018-03-08T04:45:16.933Z,2.48
2018-03-08T04:46:16.205Z,2.36
2018-03-08T04:47:16.464Z,2.23
2018-03-08T04:48:16.730Z,2.23
2018-03-08T04:49:17.000Z,2.23
2018-03-08T04:50:16.277Z,2.23
2018-03-08T04:51:16.325Z,2.11
2018-03-08T04:52:16.593Z,2.11
2018-03-08T04:53:16.876Z,2.11
2018-03-08T04:54:17.169Z,2.05
2018-03-08T04:55:16.461Z,2.23
2018-03-08T04:56:16.737Z,2.36
2018-03-08T04:57:17.288Z,2.30
2018-03-08T04:58:16.571Z,2.30
2018-03-08T04:59:16.839Z,2.17
2018-03-08T05:00:17.115Z,2.05
2018-03-08T05:01:17.157Z,1.98
2018-03-08T05:02:16.435Z,1.98
2018-03-08T05:03:17.095Z,1.92
2018-03-08T05:04:16.357Z,1.86
2018-03-08T05:05:16.634Z,1.92
2018-03-08T05:06:16.902Z,1.86
2018-03-08T05:07:17.342Z,1.73
2018-03-08T05:08:16.603Z,1.55
2018-03-08T05:09:16.870Z,1.61
2018-03-08T05:10:17.147Z,1.61
2018-03-08T05:11:17.192Z,1.55
2018-03-08T05:12:16.457Z,1.48
2018-03-08T05:13:16.731Z,1.48
2018-03-08T05:14:16.993Z,1.48
2018-03-08T05:15:16.283Z,1.42
2018-03-08T05:16:16.563Z,1.36
2018-03-08T05:17:16.831Z,1.36
2018-03-08T05:18:17.157Z,1.42
2018-03-08T05:19:16.430Z,1.42
2018-03-08T05:20:16.713Z,1.36
2018-03-08T05:21:16.740Z,1.42
2018-03-08T05:22:17.009Z,1.36
2018-03-08T05:23:16.783Z,1.48
2018-03-08T05:24:17.056Z,1.55
2018-03-08T05:25:16.326Z,1.48
2018-03-08T05:26:16.593Z,1.55
2018-03-08T05:27:16.869Z,1.55
2018-03-08T05:28:17.138Z,1.61
2018-03-08T05:29:16.407Z,1.73
2018-03-08T05:30:16.682Z,1.80
2018-03-08T05:31:16.726Z,1.80
2018-03-08T05:32:16.993Z,1.86
2018-03-08T05:33:16.270Z,1.86
2018-03-08T05:34:16.531Z,1.92
2018-03-08T05:35:16.793Z,1.98
2018-03-08T05:36:17.065Z,1.92
2018-03-08T05:37:16.368Z,2.11
2018-03-08T05:38:16.643Z,2.11
2018-03-08T05:39:16.910Z,2.11
2018-03-08T05:40:17.196Z,2.17
2018-03-08T05:41:16.242Z,2.11
2018-03-08T05:42:16.519Z,2.05
2018-03-08T05:43:16.785Z,2.11
2018-03-08T05:44:17.055Z,2.23
2018-03-08T05:45:16.331Z,2.17
2018-03-08T05:46:16.600Z,2.23
2018-03-08T05:47:16.875Z,2.23
2018-03-08T05:48:17.144Z,2.23
2018-03-08T05:49:16.421Z,2.17
2018-03-08T05:50:16.708Z,2.17
2018-03-08T05:51:16.737Z,2.11
2018-03-08T05:52:17.315Z,1.98
2018-03-08T05:53:16.587Z,1.92
2018-03-08T05:54:16.853Z,1.92
2018-03-08T05:55:17.125Z,1.92
2018-03-08T05:56:16.412Z,1.92
2018-03-08T05:57:16.680Z,1.86
2018-03-08T05:58:16.956Z,1.92
2018-03-08T05:59:16.226Z,1.80
2018-03-08T06:00:16.503Z,1.80
2018-03-08T06:01:16.546Z,1.73
2018-03-08T06:02:16.822Z,1.73
2018-03-08T06:03:17.094Z,1.98
2018-03-08T06:04:16.358Z,2.11
2018-03-08T06:05:16.634Z,2.11
2018-03-08T06:06:16.956Z,2.05
2018-03-08T06:07:16.244Z,2.11
2018-03-08T06:08:16.560Z,2.23
2018-03-08T06:09:16.836Z,2.17
2018-03-08T06:10:17.126Z,2.30
2018-03-08T06:11:17.150Z,2.30
2018-03-08T06:12:16.411Z,2.42
2018-03-08T06:13:16.677Z,2.36
2018-03-08T06:14:16.958Z,2.36
2018-03-08T06:15:16.234Z,2.30
2018-03-08T06:16:16.503Z,2.30
2018-03-08T06:17:16.774Z,2.42
2018-03-08T06:18:17.057Z,2.36
2018-03-08T06:19:16.333Z,2.36
2018-03-08T06:20:16.628Z,2.23
2018-03-08T06:21:16.690Z,2.23
2018-03-08T06:22:16.958Z,2.17
2018-03-08T06:23:16.234Z,2.11
2018-03-08T06:24:16.507Z,2.05
2018-03-08T06:25:16.788Z,1.98
2018-03-08T06:26:17.060Z,1.98
2018-03-08T06:27:16.328Z,1.98
2018-03-08T06:28:16.599Z,1.98
2018-03-08T06:29:16.863Z,1.98
2018-03-08T06:30:17.131Z,2.05
2018-03-08T06:31:17.174Z,2.17
2018-03-08T06:32:16.445Z,2.36
2018-03-08T06:33:16.719Z,2.36
2018-03-08T06:34:16.992Z,2.42
2018-03-08T06:35:16.274Z,2.48
2018-03-08T06:36:16.559Z,2.42
2018-03-08T06:37:16.838Z,2.42
2018-03-08T06:38:17.118Z,2.42
2018-03-08T06:39:16.382Z,2.42
2018-03-08T06:40:16.667Z,2.48
2018-03-08T06:41:16.708Z,2.55
2018-03-08T06:42:16.990Z,2.61
2018-03-08T06:43:16.255Z,2.67
2018-03-08T06:44:16.527Z,2.67
2018-03-08T06:45:16.792Z,2.73
2018-03-08T06:46:17.053Z,2.73
2018-03-08T06:47:16.320Z,2.86
2018-03-08T06:48:16.589Z,2.92
2018-03-08T06:49:16.859Z,2.86
2018-03-08T06:50:17.127Z,2.98
2018-03-08T06:51:17.177Z,2.86
2018-03-08T06:52:16.449Z,2.92
2018-03-08T06:53:16.723Z,2.98
2018-03-08T06:54:16.993Z,3.05
2018-03-08T06:55:16.261Z,3.11
2018-03-08T06:56:16.533Z,3.11
2018-03-08T06:57:16.802Z,3.17
2018-03-08T06:58:17.083Z,3.17
2018-03-08T06:59:16.364Z,3.11
2018-03-08T07:00:16.643Z,3.11
2018-03-08T07:01:16.698Z,3.05
2018-03-08T07:02:16.975Z,3.11
2018-03-08T07:03:16.242Z,3.23
2018-03-08T07:04:16.522Z,3.23
2018-03-08T07:05:16.798Z,3.36
2018-03-08T07:06:17.065Z,3.30
2018-03-08T07:07:16.340Z,3.36
2018-03-08T07:08:16.605Z,3.42
2018-03-08T07:09:16.876Z,3.42
2018-03-08T07:10:19.173Z,3.42
2018-03-08T07:11:18.226Z,3.42
2018-03-08T07:12:16.510Z,3.36
2018-03-08T07:13:16.787Z,3.36
2018-03-08T07:14:17.073Z,3.30
2018-03-08T07:15:16.350Z,3.30
2018-03-08T07:16:16.614Z,3.30
2018-03-08T07:17:16.887Z,3.30
2018-03-08T07:18:17.150Z,3.36
2018-03-08T07:19:16.436Z,3.42
2018-03-08T07:20:16.700Z,3.42
2018-03-08T07:21:16.744Z,3.36
2018-03-08T07:22:17.010Z,3.42
2018-03-08T07:23:16.280Z,3.42
2018-03-08T07:24:16.539Z,3.55
2018-03-08T07:25:16.819Z,3.48
2018-03-08T07:26:17.097Z,3.55
2018-03-08T07:27:16.369Z,3.61
2018-03-08T07:28:16.639Z,3.73
2018-03-08T07:29:16.906Z,3.67
2018-03-08T07:30:17.186Z,3.61
2018-03-08T07:31:16.222Z,3.67
2018-03-08T07:32:16.509Z,3.73
2018-03-08T07:33:16.776Z,3.80
2018-03-08T07:34:17.057Z,3.80
2018-03-08T07:35:16.548Z,3.86
2018-03-08T07:36:16.825Z,3.98
2018-03-08T07:37:17.110Z,4.11
2018-03-08T07:38:16.387Z,4.23
2018-03-08T07:39:16.667Z,4.36
2018-03-08T07:40:17.004Z,4.36
2018-03-08T07:41:16.991Z,4.42
2018-03-08T07:42:16.259Z,4.55
2018-03-08T07:43:16.525Z,4.67
2018-03-08T07:44:16.792Z,4.67
2018-03-08T07:45:17.075Z,4.67
2018-03-08T07:46:16.347Z,4.73
2018-03-08T07:47:16.620Z,4.67
2018-03-08T07:48:16.893Z,4.73
2018-03-08T07:49:17.158Z,4.73
2018-03-08T07:50:16.424Z,4.86
2018-03-08T07:51:16.471Z,4.92
2018-03-08T07:52:16.750Z,4.92
2018-03-08T07:53:17.031Z,4.98
2018-03-08T07:54:16.294Z,5.17
2018-03-08T07:55:16.563Z,5.30
2018-03-08T07:56:16.838Z,5.42
2018-03-08T07:57:17.107Z,5.30
2018-03-08T07:58:16.377Z,5.42
2018-03-08T07:59:16.655Z,5.55
2018-03-08T08:00:16.943Z,5.61
2018-03-08T08:01:16.991Z,5.67
2018-03-08T08:02:16.332Z,5.55
2018-03-08T08:03:16.643Z,5.48
2018-03-08T08:04:16.907Z,5.55
2018-03-08T08:05:17.186Z,5.48
2018-03-08T08:06:16.458Z,5.55
2018-03-08T08:07:16.726Z,5.48
2018-03-08T08:08:17.003Z,5.42
2018-03-08T08:09:16.278Z,5.48
2018-03-08T08:10:16.544Z,5.61
2018-03-08T08:11:16.598Z,5.61
2018-03-08T08:12:16.873Z,5.48
2018-03-08T08:13:17.155Z,5.67
2018-03-08T08:14:16.441Z,5.61
2018-03-08T08:15:16.715Z,5.67
2018-03-08T08:16:16.980Z,5.61
2018-03-08T08:17:16.265Z,5.48
2018-03-08T08:18:16.529Z,5.48
2018-03-08T08:19:16.801Z,5.42
2018-03-08T08:20:17.085Z,5.55
2018-03-08T08:21:17.122Z,5.57
2018-03-08T08:22:16.392Z,5.67
2018-03-08T08:23:16.664Z,5.62
2018-03-08T08:24:16.940Z,5.60
2018-03-08T08:25:16.203Z,5.62
2018-03-08T08:26:16.484Z,5.69
2018-03-08T08:27:16.753Z,5.73
2018-03-08T08:28:17.029Z,5.60
2018-03-08T08:29:16.302Z,5.53
2018-03-08T08:30:16.589Z,5.50
2018-03-08T08:31:16.618Z,5.53
2018-03-08T08:32:16.890Z,5.57
2018-03-08T08:33:17.156Z,5.70
2018-03-08T08:34:16.438Z,5.73
2018-03-08T08:35:16.791Z,5.71
2018-03-08T08:36:17.076Z,5.69
2018-03-08T08:37:16.346Z,5.73
2018-03-08T08:38:16.619Z,5.73
2018-03-08T08:39:16.894Z,5.86
2018-03-08T08:40:17.189Z,5.80
2018-03-08T08:41:16.221Z,5.67
2018-03-08T08:42:16.491Z,5.61
2018-03-08T08:43:16.773Z,5.48
2018-03-08T08:44:17.051Z,5.36
2018-03-08T08:45:16.320Z,5.36
2018-03-08T08:46:16.595Z,5.30
2018-03-08T08:47:16.875Z,5.23
2018-03-08T08:48:17.147Z,5.30
2018-03-08T08:49:16.427Z,5.17
2018-03-08T08:50:16.713Z,5.17
2018-03-08T08:51:16.756Z,5.17
2018-03-08T08:52:17.035Z,5.23
2018-03-08T08:53:16.345Z,5.30
2018-03-08T08:54:16.610Z,5.36
2018-03-08T08:55:16.886Z,5.48
2018-03-08T08:56:17.167Z,5.48
2018-03-08T08:57:16.438Z,5.48
2018-03-08T08:58:16.704Z,5.42
2018-03-08T08:59:16.989Z,5.42
2018-03-08T09:00:16.340Z,5.23
2018-03-08T09:01:16.298Z,5.23
2018-03-08T09:02:16.590Z,5.23
2018-03-08T09:03:16.862Z,5.30
2018-03-08T09:04:17.181Z,5.23
2018-03-08T09:05:16.457Z,5.30
2018-03-08T09:06:16.724Z,5.23
2018-03-08T09:07:16.997Z,5.23
2018-03-08T09:08:16.261Z,5.23
2018-03-08T09:09:16.532Z,5.11
2018-03-08T09:10:16.817Z,5.05
2018-03-08T09:11:16.856Z,5.05
2018-03-08T09:12:17.390Z,4.98
2018-03-08T09:13:16.663Z,4.92
2018-03-08T09:14:16.934Z,4.92
2018-03-08T09:15:16.247Z,4.98
2018-03-08T09:16:16.610Z,4.92
2018-03-08T09:17:16.884Z,4.92
2018-03-08T09:18:17.157Z,4.98
2018-03-08T09:19:16.431Z,5.02
2018-03-08T09:20:16.707Z,5.05
2018-03-08T09:21:16.762Z,5.05
2018-03-08T09:22:17.034Z,5.16
2018-03-08T09:23:16.319Z,5.15
2018-03-08T09:24:16.594Z,5.17
2018-03-08T09:25:16.864Z,5.20
2018-03-08T09:26:17.132Z,5.23
2018-03-08T09:27:16.408Z,5.26
2018-03-08T09:28:16.676Z,5.27
2018-03-08T09:29:16.947Z,5.23
2018-03-08T09:30:16.223Z,5.27
2018-03-08T09:31:16.271Z,5.33
2018-03-08T09:32:16.535Z,5.45
2018-03-08T09:33:16.810Z,5.46
2018-03-08T09:34:17.072Z,5.50
2018-03-08T09:35:16.351Z,5.50
2018-03-08T09:36:16.621Z,5.50
2018-03-08T09:37:16.894Z,5.53
2018-03-08T09:38:17.171Z,5.56
2018-03-08T09:39:16.444Z,5.62
2018-03-08T09:40:16.731Z,5.63
2018-03-08T09:41:16.759Z,5.62
2018-03-08T09:42:17.036Z,5.66
2018-03-08T09:43:16.311Z,5.69
2018-03-08T09:44:16.576Z,5.77
2018-03-08T09:45:16.843Z,5.75
2018-03-08T09:46:17.115Z,5.73
2018-03-08T09:47:16.404Z,5.73
2018-03-08T09:48:16.671Z,5.86
2018-03-08T09:49:16.942Z,5.84
2018-03-08T09:50:16.220Z,5.84
2018-03-08T09:51:16.252Z,5.89
2018-03-08T09:52:16.514Z,5.89
2018-03-08T09:53:16.775Z,5.93
2018-03-08T09:54:17.051Z,6.00
2018-03-08T09:55:16.314Z,6.04
2018-03-08T09:56:16.584Z,6.14
2018-03-08T09:57:16.855Z,6.48
2018-03-08T09:58:17.126Z,6.80
2018-03-08T09:59:16.400Z,6.88
2018-03-08T10:00:16.693Z,6.70
2018-03-08T10:01:16.724Z,6.80
2018-03-08T10:02:16.996Z,6.86
2018-03-08T10:03:16.270Z,6.86
2018-03-08T10:04:16.548Z,6.80
2018-03-08T10:05:16.835Z,6.73
2018-03-08T10:06:17.111Z,6.80
2018-03-08T10:07:16.384Z,6.98
2018-03-08T10:08:16.667Z,6.99
2018-03-08T10:09:16.941Z,6.92
2018-03-08T10:10:16.225Z,7.11
2018-03-08T10:11:16.269Z,6.98
2018-03-08T10:12:16.534Z,7.05
2018-03-08T10:13:16.808Z,7.23
2018-03-08T10:14:17.083Z,7.30
2018-03-08T10:15:16.357Z,7.41
2018-03-08T10:16:16.656Z,7.07
2018-03-08T10:17:16.924Z,7.06
2018-03-08T10:18:17.186Z,7.11
2018-03-08T10:19:16.454Z,6.98
2018-03-08T10:20:16.725Z,7.05
2018-03-08T10:21:16.786Z,7.23
2018-03-08T10:22:17.077Z,7.36
2018-03-08T10:23:16.348Z,7.55
2018-03-08T10:24:16.633Z,7.73
2018-03-08T10:25:16.899Z,8.05
2018-03-08T10:26:17.169Z,8.11
2018-03-08T10:27:16.439Z,8.05
2018-03-08T10:28:16.706Z,8.05
2018-03-08T10:29:16.973Z,8.23
2018-03-08T10:30:16.272Z,8.11
2018-03-08T10:31:16.303Z,8.05
2018-03-08T10:32:16.583Z,8.05
2018-03-08T10:33:16.875Z,8.17
2018-03-08T10:34:16.239Z,8.17
2018-03-08T10:35:16.518Z,8.36
2018-03-08T10:36:16.787Z,8.36
2018-03-08T10:37:17.055Z,8.23
2018-03-08T10:38:16.323Z,8.13
2018-03-08T10:40:16.353Z,8.36
2018-03-08T10:41:16.403Z,7.92
2018-03-08T10:42:16.698Z,7.61
2018-03-08T10:43:16.982Z,7.73
2018-03-08T10:44:16.247Z,7.86
2018-03-08T10:45:16.520Z,7.86
2018-03-08T10:46:16.797Z,7.67
2018-03-08T10:47:17.072Z,7.48
2018-03-08T10:48:16.339Z,7.48
2018-03-08T10:49:16.615Z,7.48
2018-03-08T10:50:16.899Z,7.30
2018-03-08T10:51:16.935Z,7.42
2018-03-08T10:52:17.203Z,7.48
2018-03-08T10:53:16.472Z,7.55
2018-03-08T10:54:16.747Z,7.48
2018-03-08T10:55:17.436Z,7.42
2018-03-08T10:56:16.744Z,7.36
2018-03-08T10:57:17.010Z,7.36
2018-03-08T10:58:16.276Z,7.30
2018-03-08T10:59:16.539Z,7.11
2018-03-08T11:00:16.822Z,7.17
2018-03-08T11:01:16.861Z,7.17
2018-03-08T11:02:17.135Z,7.23
2018-03-08T11:03:16.406Z,7.17
2018-03-08T11:04:16.683Z,7.42
2018-03-08T11:05:16.955Z,7.73
2018-03-08T11:06:16.217Z,7.92
2018-03-08T11:07:16.482Z,8.11
2018-03-08T11:08:16.748Z,8.30
2018-03-08T11:09:17.013Z,8.23
2018-03-08T11:10:16.297Z,8.05
2018-03-08T11:11:16.326Z,8.17
2018-03-08T11:12:16.594Z,8.30
2018-03-08T11:13:16.865Z,8.17
2018-03-08T11:14:17.143Z,8.11
2018-03-08T11:15:16.418Z,8.23
2018-03-08T11:16:16.702Z,8.11
2018-03-08T11:17:16.982Z,8.30
2018-03-08T11:18:16.261Z,8.42
2018-03-08T11:19:16.530Z,8.55
2018-03-08T11:20:16.808Z,8.67
2018-03-08T11:21:16.866Z,8.86
2018-03-08T11:22:17.136Z,9.05
2018-03-08T11:23:16.408Z,9.23
2018-03-08T11:24:16.686Z,9.30
2018-03-08T11:25:16.958Z,9.42
2018-03-08T11:26:16.230Z,9.73
2018-03-08T11:27:16.504Z,9.61
2018-03-08T11:28:16.772Z,9.55
2018-03-08T11:29:17.043Z,9.48
2018-03-08T11:30:16.329Z,9.55
2018-03-08T11:31:16.358Z,9.67
2018-03-08T11:32:16.634Z,9.61
2018-03-08T11:33:16.907Z,9.92
2018-03-08T11:34:17.181Z,9.61
2018-03-08T11:35:16.446Z,9.42
2018-03-08T11:36:16.733Z,9.48
2018-03-08T11:37:17.002Z,9.42
2018-03-08T11:38:16.283Z,9.61
2018-03-08T11:39:16.555Z,9.80
2018-03-08T11:40:16.837Z,9.67
2018-03-08T11:41:16.861Z,9.61
2018-03-08T11:42:17.138Z,9.23
2018-03-08T11:43:16.410Z,9.17
2018-03-08T11:44:16.684Z,9.11
2018-03-08T11:45:16.946Z,9.11
2018-03-08T11:46:16.231Z,9.30
2018-03-08T11:47:16.502Z,9.42
2018-03-08T11:48:16.778Z,9.48
2018-03-08T11:49:17.048Z,9.55
2018-03-08T11:50:16.334Z,9.55
2018-03-08T11:51:16.376Z,9.42
2018-03-08T11:52:16.649Z,9.17
2018-03-08T11:53:16.926Z,9.17
2018-03-08T11:54:17.191Z,9.17
2018-03-08T11:55:16.474Z,9.05
2018-03-08T11:56:16.763Z,8.92
2018-03-08T11:57:17.042Z,8.92
2018-03-08T11:58:16.309Z,8.92
2018-03-08T11:59:16.576Z,8.86
2018-03-08T12:00:16.892Z,8.73
2018-03-08T12:01:16.907Z,8.80
2018-03-08T12:02:17.179Z,8.92
2018-03-08T12:03:16.451Z,8.98
2018-03-08T12:04:16.715Z,9.05
2018-03-08T12:05:16.984Z,9.17
2018-03-08T12:06:16.251Z,9.17
2018-03-08T12:07:16.515Z,9.17
2018-03-08T12:08:16.786Z,9.23
2018-03-08T12:09:17.061Z,9.17
2018-03-08T12:10:16.343Z,8.98
2018-03-08T12:11:16.387Z,8.86
2018-03-08T12:12:16.665Z,8.80
2018-03-08T12:13:16.940Z,8.73
2018-03-08T12:14:16.200Z,8.67
2018-03-08T12:15:16.471Z,8.67
2018-03-08T12:16:16.743Z,8.67
2018-03-08T12:17:17.007Z,8.61
2018-03-08T12:18:16.279Z,8.55
2018-03-08T12:19:16.557Z,8.61
2018-03-08T12:20:16.851Z,8.73
2018-03-08T12:21:16.866Z,8.86
2018-03-08T12:22:17.143Z,8.98
2018-03-08T12:23:16.418Z,9.11
2018-03-08T12:24:16.707Z,9.36
2018-03-08T12:25:16.976Z,9.48
2018-03-08T12:26:16.247Z,9.55
2018-03-08T12:27:16.521Z,9.42
2018-03-08T12:28:16.787Z,9.48
2018-03-08T12:29:17.057Z,9.55
2018-03-08T12:30:16.350Z,9.30
2018-03-08T12:31:16.378Z,9.11
2018-03-08T12:32:16.648Z,9.11
2018-03-08T12:33:16.928Z,9.36
2018-03-08T12:34:16.202Z,9.30
2018-03-08T12:35:16.473Z,9.30
2018-03-08T12:36:16.748Z,9.30
2018-03-08T12:37:17.014Z,9.36
2018-03-08T12:38:16.289Z,9.42
2018-03-08T12:39:16.583Z,9.30
2018-03-08T12:40:16.846Z,9.23
2018-03-08T12:41:16.915Z,8.98
2018-03-08T12:42:16.233Z,8.86
2018-03-08T12:43:16.502Z,8.92
2018-03-08T12:44:16.775Z,8.98
2018-03-08T12:45:17.042Z,9.05
2018-03-08T12:46:16.310Z,9.17
2018-03-08T12:47:16.591Z,9.30
2018-03-08T12:48:16.862Z,9.23
2018-03-08T12:49:17.136Z,9.17
2018-03-08T12:50:16.415Z,9.11
2018-03-08T12:51:16.454Z,9.17
2018-03-08T12:52:16.725Z,9.23
2018-03-08T12:53:16.998Z,9.36
2018-03-08T12:54:16.276Z,9.42
2018-03-08T12:55:16.551Z,9.42
2018-03-08T12:56:16.819Z,9.48
2018-03-08T12:57:17.125Z,9.55
2018-03-08T12:58:16.443Z,9.61
2018-03-08T12:59:16.715Z,9.48
2018-03-08T13:00:16.999Z,9.67
2018-03-08T13:01:17.031Z,9.86
2018-03-08T13:02:16.300Z,10.03
2018-03-08T13:03:16.580Z,10.07
2018-03-08T13:04:16.854Z,10.19
2018-03-08T13:05:17.124Z,10.37
2018-03-08T13:06:16.399Z,10.41
2018-03-08T13:07:16.678Z,10.37
2018-03-08T13:08:16.955Z,10.62
2018-03-08T13:09:16.222Z,10.73
2018-03-08T13:10:16.508Z,10.59
2018-03-08T13:11:16.532Z,10.47
2018-03-08T13:12:16.801Z,10.52
2018-03-08T13:13:17.071Z,10.30
2018-03-08T13:14:16.342Z,10.30
2018-03-08T13:15:16.620Z,10.36
2018-03-08T13:16:16.893Z,10.10
2018-03-08T13:17:17.162Z,10.11
2018-03-08T13:18:16.435Z,10.16